sensor_id;sensor_type;location;lat;lon;timestamp;pressure;altitude;pressure_sealevel;temperature;humidity
46007;BME280;31738;50.188;8.524;2022-08-21T00:00:18;98885.13;;;20.60;62.40
46007;BME280;31738;50.188;8.524;2022-08-21T00:02:51;98871.38;;;20.56;62.60
46007;BME280;31738;50.188;8.524;2022-08-21T00:05:17;98866.13;;;20.51;62.64
46007;BME280;31738;50.188;8.524;2022-08-21T00:07:43;98864.53;;;20.50;63.05
46007;BME280;31738;50.188;8.524;2022-08-21T00:10:09;98859.75;;;20.47;63.04
46007;BME280;31738;50.188;8.524;2022-08-21T00:12:35;98851.91;;;20.46;63.39
46007;BME280;31738;50.188;8.524;2022-08-21T00:15:00;98847.47;;;20.41;63.81
46007;BME280;31738;50.188;8.524;2022-08-21T00:17:26;98845.41;;;20.38;64.01
46007;BME280;31738;50.188;8.524;2022-08-21T00:19:51;98839.50;;;20.36;64.49
46007;BME280;31738;50.188;8.524;2022-08-21T00:22:17;98835.53;;;20.33;64.98
46007;BME280;31738;50.188;8.524;2022-08-21T00:24:42;98833.13;;;20.32;64.89
46007;BME280;31738;50.188;8.524;2022-08-21T00:27:08;98832.66;;;20.30;65.62
46007;BME280;31738;50.188;8.524;2022-08-21T00:29:33;98826.75;;;20.28;65.94
46007;BME280;31738;50.188;8.524;2022-08-21T00:31:59;98815.41;;;20.26;66.48
46007;BME280;31738;50.188;8.524;2022-08-21T00:34:25;98808.34;;;20.25;66.60
46007;BME280;31738;50.188;8.524;2022-08-21T00:36:50;98810.63;;;20.23;67.11
46007;BME280;31738;50.188;8.524;2022-08-21T00:39:16;98819.22;;;20.25;67.17
46007;BME280;31738;50.188;8.524;2022-08-21T00:41:41;98812.19;;;20.24;67.47
46007;BME280;31738;50.188;8.524;2022-08-21T00:44:11;98812.19;;;20.24;67.41
46007;BME280;31738;50.188;8.524;2022-08-21T00:46:38;98812.19;;;20.24;67.49
46007;BME280;31738;50.188;8.524;2022-08-21T00:49:06;98805.16;;;20.23;67.71
46007;BME280;31738;50.188;8.524;2022-08-21T00:51:37;98814.44;;;20.22;67.97
46007;BME280;31738;50.188;8.524;2022-08-21T00:54:05;98811.28;;;20.20;68.24
46007;BME280;31738;50.188;8.524;2022-08-21T00:56:32;98798.00;;;20.18;68.50
46007;BME280;31738;50.188;8.524;2022-08-21T00:58:58;98804.22;;;20.19;68.90
46007;BME280;31738;50.188;8.524;2022-08-21T01:01:25;98797.19;;;20.18;69.12
46007;BME280;31738;50.188;8.524;2022-08-21T01:03:51;98796.38;;;20.17;69.14
46007;BME280;31738;50.188;8.524;2022-08-21T01:06:17;98790.50;;;20.15;69.39
46007;BME280;31738;50.188;8.524;2022-08-21T01:08:43;98795.47;;;20.13;69.96
46007;BME280;31738;50.188;8.524;2022-08-21T01:11:09;98789.84;;;20.10;69.64
46007;BME280;31738;50.188;8.524;2022-08-21T01:13:36;98788.28;;;20.09;70.00
46007;BME280;31738;50.188;8.524;2022-08-21T01:16:05;98779.63;;;20.07;70.48
46007;BME280;31738;50.188;8.524;2022-08-21T01:18:33;98780.78;;;20.06;70.62
46007;BME280;31738;50.188;8.524;2022-08-21T01:23:27;98782.81;;;20.09;70.96
46007;BME280;31738;50.188;8.524;2022-08-21T01:25:53;98782.00;;;20.08;71.12
46007;BME280;31738;50.188;8.524;2022-08-21T01:28:19;98782.81;;;20.09;71.31
46007;BME280;31738;50.188;8.524;2022-08-21T01:30:46;98776.56;;;20.08;71.54
46007;BME280;31738;50.188;8.524;2022-08-21T01:33:11;98783.50;;;20.06;71.55
46007;BME280;31738;50.188;8.524;2022-08-21T01:35:37;98770.88;;;20.01;71.89
46007;BME280;31738;50.188;8.524;2022-08-21T01:38:03;98773.94;;;20.00;71.74
46007;BME280;31738;50.188;8.524;2022-08-21T01:40:29;98772.53;;;19.94;72.11
46007;BME280;31738;50.188;8.524;2022-08-21T01:42:54;98774.31;;;19.90;72.26
46007;BME280;31738;50.188;8.524;2022-08-21T01:48:31;98773.81;;;19.76;72.63
46007;BME280;31738;50.188;8.524;2022-08-21T01:50:57;98777.66;;;19.75;72.66
46007;BME280;31738;50.188;8.524;2022-08-21T01:53:23;98774.78;;;19.71;72.94
46007;BME280;31738;50.188;8.524;2022-08-21T01:55:48;98770.00;;;19.68;72.88
46007;BME280;31738;50.188;8.524;2022-08-21T01:58:14;98762.41;;;19.62;73.10
46007;BME280;31738;50.188;8.524;2022-08-21T02:00:40;98761.00;;;19.56;73.29
46007;BME280;31738;50.188;8.524;2022-08-21T02:03:06;98754.59;;;19.52;73.59
46007;BME280;31738;50.188;8.524;2022-08-21T02:05:32;98755.59;;;19.47;73.83
46007;BME280;31738;50.188;8.524;2022-08-21T02:07:57;98755.44;;;19.44;73.89
46007;BME280;31738;50.188;8.524;2022-08-21T02:10:26;98756.13;;;19.41;73.82
46007;BME280;31738;50.188;8.524;2022-08-21T02:12:53;98748.94;;;19.36;74.09
46007;BME280;31738;50.188;8.524;2022-08-21T02:15:19;98744.03;;;19.30;74.32
46007;BME280;31738;50.188;8.524;2022-08-21T02:17:47;98741.47;;;19.25;74.61
46007;BME280;31738;50.188;8.524;2022-08-21T02:22:48;98740.44;;;19.09;75.00
46007;BME280;31738;50.188;8.524;2022-08-21T02:25:15;98743.16;;;19.09;75.17
46007;BME280;31738;50.188;8.524;2022-08-21T02:27:43;98741.56;;;19.08;74.98
46007;BME280;31738;50.188;8.524;2022-08-21T02:30:14;98751.53;;;19.04;74.84
46007;BME280;31738;50.188;8.524;2022-08-21T02:32:40;98745.78;;;18.97;75.41
46007;BME280;31738;50.188;8.524;2022-08-21T02:35:06;98746.28;;;18.90;75.29
46007;BME280;31738;50.188;8.524;2022-08-21T02:37:32;98739.13;;;18.86;75.73
46007;BME280;31738;50.188;8.524;2022-08-21T02:39:59;98741.38;;;18.84;75.57
46007;BME280;31738;50.188;8.524;2022-08-21T02:42:26;98731.50;;;18.79;75.93
46007;BME280;31738;50.188;8.524;2022-08-21T02:44:51;98733.25;;;18.75;75.75
46007;BME280;31738;50.188;8.524;2022-08-21T02:47:17;98741.94;;;18.68;76.34
46007;BME280;31738;50.188;8.524;2022-08-21T02:49:42;98739.22;;;18.60;76.55
46007;BME280;31738;50.188;8.524;2022-08-21T02:52:08;98730.78;;;18.53;76.59
46007;BME280;31738;50.188;8.524;2022-08-21T02:54:33;98730.47;;;18.46;76.57
46007;BME280;31738;50.188;8.524;2022-08-21T02:56:59;98726.84;;;18.42;77.31
46007;BME280;31738;50.188;8.524;2022-08-21T02:59:24;98733.25;;;18.37;77.44
46007;BME280;31738;50.188;8.524;2022-08-21T03:01:49;98719.16;;;18.35;77.57
46007;BME280;31738;50.188;8.524;2022-08-21T03:04:15;98723.31;;;18.33;78.10
46007;BME280;31738;50.188;8.524;2022-08-21T03:06:40;98720.13;;;18.31;78.22
46007;BME280;31738;50.188;8.524;2022-08-21T03:09:06;98716.47;;;18.27;78.17
46007;BME280;31738;50.188;8.524;2022-08-21T03:11:31;98710.06;;;18.23;78.28
46007;BME280;31738;50.188;8.524;2022-08-21T03:13:57;98699.06;;;18.19;78.51
46007;BME280;31738;50.188;8.524;2022-08-21T03:16:22;98710.59;;;18.16;78.92
46007;BME280;31738;50.188;8.524;2022-08-21T03:18:48;98716.66;;;18.13;78.87
46007;BME280;31738;50.188;8.524;2022-08-21T03:21:13;98708.03;;;18.11;79.16
46007;BME280;31738;50.188;8.524;2022-08-21T03:23:39;98704.19;;;18.12;79.23
46007;BME280;31738;50.188;8.524;2022-08-21T03:26:07;98699.56;;;18.13;79.34
46007;BME280;31738;50.188;8.524;2022-08-21T03:28:33;98700.38;;;18.13;79.91
46007;BME280;31738;50.188;8.524;2022-08-21T03:30:58;98702.59;;;18.11;79.56
46007;BME280;31738;50.188;8.524;2022-08-21T03:33:24;98700.22;;;18.10;79.95
46007;BME280;31738;50.188;8.524;2022-08-21T03:36:03;98701.19;;;18.05;80.07
46007;BME280;31738;50.188;8.524;2022-08-21T03:38:31;98700.84;;;18.07;80.20
46007;BME280;31738;50.188;8.524;2022-08-21T03:40:57;98705.47;;;18.06;80.40
46007;BME280;31738;50.188;8.524;2022-08-21T03:43:23;98700.03;;;18.06;80.30
46007;BME280;31738;50.188;8.524;2022-08-21T03:45:48;98701.50;;;18.04;79.83
46007;BME280;31738;50.188;8.524;2022-08-21T03:48:14;98694.00;;;18.01;80.48
46007;BME280;31738;50.188;8.524;2022-08-21T03:50:42;98703.25;;;18.00;79.95
46007;BME280;31738;50.188;8.524;2022-08-21T03:53:10;98710.13;;;17.97;79.94
46007;BME280;31738;50.188;8.524;2022-08-21T03:55:36;98715.06;;;17.95;80.30
46007;BME280;31738;50.188;8.524;2022-08-21T03:58:02;98713.47;;;17.94;80.23
46007;BME280;31738;50.188;8.524;2022-08-21T04:00:27;98721.94;;;17.93;79.81
46007;BME280;31738;50.188;8.524;2022-08-21T04:02:53;98719.56;;;17.91;80.36
46007;BME280;31738;50.188;8.524;2022-08-21T04:05:19;98717.97;;;17.90;80.46
46007;BME280;31738;50.188;8.524;2022-08-21T04:08:02;98733.28;;;17.86;80.34
46007;BME280;31738;50.188;8.524;2022-08-21T04:10:29;98729.47;;;17.87;80.28
46007;BME280;31738;50.188;8.524;2022-08-21T04:12:55;98736.00;;;17.86;80.13
46007;BME280;31738;50.188;8.524;2022-08-21T04:15:23;98733.28;;;17.86;79.94
46007;BME280;31738;50.188;8.524;2022-08-21T04:17:49;98732.34;;;17.82;80.21
46007;BME280;31738;50.188;8.524;2022-08-21T04:20:18;98740.00;;;17.80;80.26
46007;BME280;31738;50.188;8.524;2022-08-21T04:22:44;98739.50;;;17.78;79.90
46007;BME280;31738;50.188;8.524;2022-08-21T04:25:13;98739.81;;;17.77;80.50
46007;BME280;31738;50.188;8.524;2022-08-21T04:27:40;98740.16;;;17.75;80.32
46007;BME280;31738;50.188;8.524;2022-08-21T04:30:06;98739.38;;;17.75;80.56
46007;BME280;31738;50.188;8.524;2022-08-21T04:32:32;98749.91;;;17.76;80.58
46007;BME280;31738;50.188;8.524;2022-08-21T04:35:04;98753.72;;;17.75;80.05
46007;BME280;31738;50.188;8.524;2022-08-21T04:37:30;98745.13;;;17.73;80.26
46007;BME280;31738;50.188;8.524;2022-08-21T04:39:55;98759.00;;;17.72;80.66
46007;BME280;31738;50.188;8.524;2022-08-21T04:42:24;98764.44;;;17.72;80.66
46007;BME280;31738;50.188;8.524;2022-08-21T04:44:49;98756.59;;;17.70;80.29
46007;BME280;31738;50.188;8.524;2022-08-21T04:47:15;98765.38;;;17.67;80.46
46007;BME280;31738;50.188;8.524;2022-08-21T04:49:42;98768.41;;;17.66;80.83
46007;BME280;31738;50.188;8.524;2022-08-21T04:52:08;98770.31;;;17.65;81.00
46007;BME280;31738;50.188;8.524;2022-08-21T04:54:34;98765.22;;;17.64;80.72
46007;BME280;31738;50.188;8.524;2022-08-21T04:57:02;98767.13;;;17.63;80.95
46007;BME280;31738;50.188;8.524;2022-08-21T04:59:34;98769.38;;;17.61;80.67
46007;BME280;31738;50.188;8.524;2022-08-21T05:02:02;98774.00;;;17.61;80.96
46007;BME280;31738;50.188;8.524;2022-08-21T05:04:29;98766.16;;;17.59;80.74
46007;BME280;31738;50.188;8.524;2022-08-21T05:06:57;98770.78;;;17.59;80.73
46007;BME280;31738;50.188;8.524;2022-08-21T05:09:25;98775.44;;;17.58;80.82
46007;BME280;31738;50.188;8.524;2022-08-21T05:11:52;98776.53;;;17.57;80.58
46007;BME280;31738;50.188;8.524;2022-08-21T05:14:18;98779.72;;;17.59;80.80
46007;BME280;31738;50.188;8.524;2022-08-21T05:16:44;98786.75;;;17.60;80.57
46007;BME280;31738;50.188;8.524;2022-08-21T05:19:11;98782.63;;;17.63;80.87
46007;BME280;31738;50.188;8.524;2022-08-21T05:21:41;98782.31;;;17.64;80.45
46007;BME280;31738;50.188;8.524;2022-08-21T05:24:07;98783.41;;;17.63;80.62
46007;BME280;31738;50.188;8.524;2022-08-21T05:26:33;98781.97;;;17.66;81.30
46007;BME280;31738;50.188;8.524;2022-08-21T05:28:59;98785.97;;;17.68;81.16
46007;BME280;31738;50.188;8.524;2022-08-21T05:31:24;98784.53;;;17.71;80.60
46007;BME280;31738;50.188;8.524;2022-08-21T05:33:50;98785.81;;;17.73;81.18
46007;BME280;31738;50.188;8.524;2022-08-21T05:36:17;98786.75;;;17.77;80.90
46007;BME280;31738;50.188;8.524;2022-08-21T05:38:43;98786.13;;;17.80;80.90
46007;BME280;31738;50.188;8.524;2022-08-21T05:41:09;98796.03;;;17.85;81.18
46007;BME280;31738;50.188;8.524;2022-08-21T05:43:34;98795.06;;;17.89;81.09
46007;BME280;31738;50.188;8.524;2022-08-21T05:46:05;98793.47;;;17.97;81.29
46007;BME280;31738;50.188;8.524;2022-08-21T05:48:32;98786.63;;;17.99;81.39
46007;BME280;31738;50.188;8.524;2022-08-21T05:51:05;98785.66;;;18.04;81.23
46007;BME280;31738;50.188;8.524;2022-08-21T05:53:31;98790.44;;;18.07;81.03
46007;BME280;31738;50.188;8.524;2022-08-21T05:55:56;98787.88;;;18.10;81.18
46007;BME280;31738;50.188;8.524;2022-08-21T05:58:22;98792.03;;;18.16;81.45
46007;BME280;31738;50.188;8.524;2022-08-21T06:00:49;98788.03;;;18.22;81.29
46007;BME280;31738;50.188;8.524;2022-08-21T06:03:21;98797.94;;;18.27;80.91
46007;BME280;31738;50.188;8.524;2022-08-21T06:05:47;98803.50;;;18.30;81.19
46007;BME280;31738;50.188;8.524;2022-08-21T06:08:15;98803.84;;;18.37;81.19
46007;BME280;31738;50.188;8.524;2022-08-21T06:10:41;98800.97;;;18.42;80.85
46007;BME280;31738;50.188;8.524;2022-08-21T06:13:07;98813.59;;;18.47;80.86
46007;BME280;31738;50.188;8.524;2022-08-21T06:15:33;98809.25;;;18.54;80.95
46007;BME280;31738;50.188;8.524;2022-08-21T06:17:59;98809.41;;;18.58;80.63
46007;BME280;31738;50.188;8.524;2022-08-21T06:20:24;98811.94;;;18.63;80.50
46007;BME280;31738;50.188;8.524;2022-08-21T06:22:50;98796.59;;;18.67;80.85
46007;BME280;31738;50.188;8.524;2022-08-21T06:25:16;98808.41;;;18.71;80.05
46007;BME280;31738;50.188;8.524;2022-08-21T06:27:41;98808.56;;;18.75;79.91
46007;BME280;31738;50.188;8.524;2022-08-21T06:30:07;98805.97;;;18.78;79.71
46007;BME280;31738;50.188;8.524;2022-08-21T06:32:34;98811.56;;;18.82;79.26
46007;BME280;31738;50.188;8.524;2022-08-21T06:35:00;98805.97;;;18.87;79.31
46007;BME280;31738;50.188;8.524;2022-08-21T06:37:25;98807.72;;;18.91;79.12
46007;BME280;31738;50.188;8.524;2022-08-21T06:39:51;98814.09;;;18.95;78.89
46007;BME280;31738;50.188;8.524;2022-08-21T06:42:17;98811.19;;;19.00;78.39
46007;BME280;31738;50.188;8.524;2022-08-21T06:44:43;98812.59;;;19.06;78.47
46007;BME280;31738;50.188;8.524;2022-08-21T06:47:09;98823.63;;;19.10;78.26
46007;BME280;31738;50.188;8.524;2022-08-21T06:49:35;98822.31;;;19.16;78.13
46007;BME280;31738;50.188;8.524;2022-08-21T06:52:01;98828.69;;;19.20;77.79
46007;BME280;31738;50.188;8.524;2022-08-21T06:54:26;98823.88;;;19.25;77.84
46007;BME280;31738;50.188;8.524;2022-08-21T06:56:52;98831.09;;;19.30;77.15
46007;BME280;31738;50.188;8.524;2022-08-21T06:59:17;98835.88;;;19.33;76.91
46007;BME280;31738;50.188;8.524;2022-08-21T07:01:44;98838.41;;;19.38;76.84
46007;BME280;31738;50.188;8.524;2022-08-21T07:04:10;98838.69;;;19.45;76.52
46007;BME280;31738;50.188;8.524;2022-08-21T07:06:36;98846.69;;;19.50;76.32
46007;BME280;31738;50.188;8.524;2022-08-21T07:09:02;98838.78;;;19.57;76.19
46007;BME280;31738;50.188;8.524;2022-08-21T07:11:28;98838.59;;;19.62;75.87
46007;BME280;31738;50.188;8.524;2022-08-21T07:13:53;98843.16;;;19.70;75.52
46007;BME280;31738;50.188;8.524;2022-08-21T07:19:03;98847.25;;;19.84;75.66
46007;BME280;31738;50.188;8.524;2022-08-21T07:21:29;98844.13;;;19.94;75.24
46007;BME280;31738;50.188;8.524;2022-08-21T07:23:54;98851.09;;;20.04;75.04
46007;BME280;31738;50.188;8.524;2022-08-21T07:26:22;98857.78;;;20.15;74.32
46007;BME280;31738;50.188;8.524;2022-08-21T07:28:49;98861.22;;;20.24;73.88
46007;BME280;31738;50.188;8.524;2022-08-21T07:31:17;98865.63;;;20.37;73.25
46007;BME280;31738;50.188;8.524;2022-08-21T07:33:43;98863.63;;;20.46;73.44
46007;BME280;31738;50.188;8.524;2022-08-21T07:36:09;98862.28;;;20.52;73.37
46007;BME280;31738;50.188;8.524;2022-08-21T07:38:35;98862.53;;;20.59;72.96
46007;BME280;31738;50.188;8.524;2022-08-21T07:41:04;98855.88;;;20.69;72.78
46007;BME280;31738;50.188;8.524;2022-08-21T07:43:32;98862.63;;;20.83;72.19
46007;BME280;31738;50.188;8.524;2022-08-21T07:45:57;98859.09;;;20.95;71.53
46007;BME280;31738;50.188;8.524;2022-08-21T07:48:23;98859.63;;;21.09;71.20
46007;BME280;31738;50.188;8.524;2022-08-21T07:50:49;98865.56;;;21.23;70.56
46007;BME280;31738;50.188;8.524;2022-08-21T07:53:16;98855.47;;;21.35;70.78
46007;BME280;31738;50.188;8.524;2022-08-21T07:55:42;98861.59;;;21.44;69.88
46007;BME280;31738;50.188;8.524;2022-08-21T07:58:07;98863.75;;;21.51;69.79
46007;BME280;31738;50.188;8.524;2022-08-21T08:00:33;98859.28;;;21.58;69.78
46007;BME280;31738;50.188;8.524;2022-08-21T08:02:59;98865.22;;;21.60;69.58
46007;BME280;31738;50.188;8.524;2022-08-21T08:05:28;98864.09;;;21.73;68.78
46007;BME280;31738;50.188;8.524;2022-08-21T08:07:54;98865.91;;;21.81;68.09
46007;BME280;31738;50.188;8.524;2022-08-21T08:10:21;98875.69;;;21.94;68.28
46007;BME280;31738;50.188;8.524;2022-08-21T08:12:47;98872.13;;;22.06;67.25
46007;BME280;31738;50.188;8.524;2022-08-21T08:15:18;98879.53;;;22.18;67.03
46007;BME280;31738;50.188;8.524;2022-08-21T08:17:45;98882.22;;;22.30;66.81
46007;BME280;31738;50.188;8.524;2022-08-21T08:20:13;98878.97;;;22.40;66.28
46007;BME280;31738;50.188;8.524;2022-08-21T08:22:39;98891.06;;;22.51;66.14
46007;BME280;31738;50.188;8.524;2022-08-21T08:25:07;98889.31;;;22.58;65.68
46007;BME280;31738;50.188;8.524;2022-08-21T08:27:33;98896.00;;;22.73;64.62
46007;BME280;31738;50.188;8.524;2022-08-21T08:29:59;98896.38;;;22.87;64.56
46007;BME280;31738;50.188;8.524;2022-08-21T08:32:24;98901.34;;;22.97;63.61
46007;BME280;31738;50.188;8.524;2022-08-21T08:34:50;98898.16;;;23.10;63.21
46007;BME280;31738;50.188;8.524;2022-08-21T08:37:17;98899.84;;;23.27;61.92
46007;BME280;31738;50.188;8.524;2022-08-21T08:39:43;98903.91;;;23.33;60.98
46007;BME280;31738;50.188;8.524;2022-08-21T08:42:20;98901.84;;;23.45;60.68
46007;BME280;31738;50.188;8.524;2022-08-21T08:44:49;98911.47;;;23.55;60.46
46007;BME280;31738;50.188;8.524;2022-08-21T08:47:20;98920.41;;;23.68;59.69
46007;BME280;31738;50.188;8.524;2022-08-21T08:50:03;98908.97;;;23.81;59.38
46007;BME280;31738;50.188;8.524;2022-08-21T08:52:36;98919.31;;;23.88;57.81
46007;BME280;31738;50.188;8.524;2022-08-21T08:55:25;98916.94;;;23.86;57.04
46007;BME280;31738;50.188;8.524;2022-08-21T08:57:53;98923.50;;;23.97;57.04
46007;BME280;31738;50.188;8.524;2022-08-21T09:00:22;98920.78;;;24.16;56.55
46007;BME280;31738;50.188;8.524;2022-08-21T09:02:52;98934.53;;;24.35;55.76
46007;BME280;31738;50.188;8.524;2022-08-21T09:05:26;98941.19;;;24.53;54.31
46007;BME280;31738;50.188;8.524;2022-08-21T09:07:55;98929.69;;;24.63;53.77
46007;BME280;31738;50.188;8.524;2022-08-21T09:13:23;98947.16;;;24.93;52.36
46007;BME280;31738;50.188;8.524;2022-08-21T09:21:43;98982.19;;;25.38;48.13
46007;BME280;31738;50.188;8.524;2022-08-21T09:24:38;98982.66;;;25.44;47.48
46007;BME280;31738;50.188;8.524;2022-08-21T09:27:10;98988.25;;;25.47;47.93
46007;BME280;31738;50.188;8.524;2022-08-21T09:29:40;98999.91;;;25.63;45.83
46007;BME280;31738;50.188;8.524;2022-08-21T09:32:15;99007.28;;;25.82;44.98
46007;BME280;31738;50.188;8.524;2022-08-21T09:34:43;99019.28;;;25.93;44.49
46007;BME280;31738;50.188;8.524;2022-08-21T09:37:19;99023.50;;;26.09;44.13
46007;BME280;31738;50.188;8.524;2022-08-21T09:39:44;99035.53;;;26.24;43.71
46007;BME280;31738;50.188;8.524;2022-08-21T09:42:10;99052.03;;;26.24;42.17
46007;BME280;31738;50.188;8.524;2022-08-21T09:44:39;99069.59;;;26.16;41.95
46007;BME280;31738;50.188;8.524;2022-08-21T09:47:09;99070.78;;;25.96;42.28
46007;BME280;31738;50.188;8.524;2022-08-21T09:49:40;99063.94;;;25.86;42.06
46007;BME280;31738;50.188;8.524;2022-08-21T09:52:22;99060.34;;;26.05;41.99
46007;BME280;31738;50.188;8.524;2022-08-21T09:54:52;99065.50;;;26.29;41.47
46007;BME280;31738;50.188;8.524;2022-08-21T09:57:23;99072.81;;;26.44;39.45
46007;BME280;31738;50.188;8.524;2022-08-21T10:00:29;99072.50;;;26.26;41.03
46007;BME280;31738;50.188;8.524;2022-08-21T10:03:08;99068.84;;;26.19;40.04
46007;BME280;31738;50.188;8.524;2022-08-21T10:05:34;99073.91;;;26.17;40.73
46007;BME280;31738;50.188;8.524;2022-08-21T10:08:00;99067.56;;;26.13;41.09
46007;BME280;31738;50.188;8.524;2022-08-21T10:10:30;99065.19;;;26.11;40.90
46007;BME280;31738;50.188;8.524;2022-08-21T10:13:21;99054.00;;;26.23;40.80
46007;BME280;31738;50.188;8.524;2022-08-21T10:16:06;99048.44;;;26.46;40.55
46007;BME280;31738;50.188;8.524;2022-08-21T10:19:00;99053.97;;;26.72;40.10
46007;BME280;31738;50.188;8.524;2022-08-21T10:21:48;99039.78;;;26.96;39.02
46007;BME280;31738;50.188;8.524;2022-08-21T10:25:28;99036.78;;;27.08;39.74
46007;BME280;31738;50.188;8.524;2022-08-21T10:30:33;99037.81;;;27.26;39.54
46007;BME280;31738;50.188;8.524;2022-08-21T10:35:44;99044.94;;;27.67;38.19
46007;BME280;31738;50.188;8.524;2022-08-21T10:38:32;99047.44;;;27.79;37.89
46007;BME280;31738;50.188;8.524;2022-08-21T10:41:12;99055.88;;;27.93;37.88
46007;BME280;31738;50.188;8.524;2022-08-21T10:49:01;99044.03;;;28.36;37.14
46007;BME280;31738;50.188;8.524;2022-08-21T10:55:04;99043.78;;;28.52;36.80
46007;BME280;31738;50.188;8.524;2022-08-21T10:57:54;99036.00;;;28.72;36.80
46007;BME280;31738;50.188;8.524;2022-08-21T11:00:23;99044.72;;;28.81;36.10
46007;BME280;31738;50.188;8.524;2022-08-21T11:03:00;99054.19;;;28.73;35.87
46007;BME280;31738;50.188;8.524;2022-08-21T11:05:43;99045.34;;;28.50;35.95
46007;BME280;31738;50.188;8.524;2022-08-21T11:08:26;99037.91;;;28.57;36.46
46007;BME280;31738;50.188;8.524;2022-08-21T11:11:04;99036.06;;;28.79;35.74
46007;BME280;31738;50.188;8.524;2022-08-21T11:13:42;99045.16;;;28.90;35.28
46007;BME280;31738;50.188;8.524;2022-08-21T11:16:18;99033.00;;;29.01;35.32
46007;BME280;31738;50.188;8.524;2022-08-21T11:18:57;99027.50;;;29.05;35.64
46007;BME280;31738;50.188;8.524;2022-08-21T11:21:43;99040.19;;;29.16;35.01
46007;BME280;31738;50.188;8.524;2022-08-21T11:24:32;99028.00;;;29.31;34.45
46007;BME280;31738;50.188;8.524;2022-08-21T11:29:34;99040.34;;;29.48;33.91
46007;BME280;31738;50.188;8.524;2022-08-21T11:32:23;99048.53;;;29.20;34.22
46007;BME280;31738;50.188;8.524;2022-08-21T11:35:10;99042.41;;;28.90;33.88
46007;BME280;31738;50.188;8.524;2022-08-21T11:48:19;99017.78;;;29.35;33.24
46007;BME280;31738;50.188;8.524;2022-08-21T11:50:50;99018.22;;;29.58;32.75
46007;BME280;31738;50.188;8.524;2022-08-21T11:53:26;99019.03;;;29.69;33.37
46007;BME280;31738;50.188;8.524;2022-08-21T11:59:23;99021.75;;;29.52;32.72
46007;BME280;31738;50.188;8.524;2022-08-21T12:01:51;99019.38;;;29.40;33.62
46007;BME280;31738;50.188;8.524;2022-08-21T12:04:43;99011.84;;;29.44;33.02
46007;BME280;31738;50.188;8.524;2022-08-21T12:07:12;99008.28;;;29.36;33.31
46007;BME280;31738;50.188;8.524;2022-08-21T12:09:38;99009.44;;;29.28;33.40
46007;BME280;31738;50.188;8.524;2022-08-21T12:12:31;99001.53;;;29.27;33.37
46007;BME280;31738;50.188;8.524;2022-08-21T12:15:17;99001.16;;;29.39;33.31
46007;BME280;31738;50.188;8.524;2022-08-21T12:17:59;99006.34;;;29.58;33.00
46007;BME280;31738;50.188;8.524;2022-08-21T12:23:27;99017.88;;;29.81;32.12
46007;BME280;31738;50.188;8.524;2022-08-21T12:26:13;99021.06;;;29.93;31.96
46007;BME280;31738;50.188;8.524;2022-08-21T12:28:42;99017.50;;;30.07;31.85
46007;BME280;31738;50.188;8.524;2022-08-21T12:31:23;99017.53;;;30.21;31.43
46007;BME280;31738;50.188;8.524;2022-08-21T12:33:56;99016.72;;;30.10;30.97
46007;BME280;31738;50.188;8.524;2022-08-21T12:36:44;99021.41;;;29.71;31.74
46007;BME280;31738;50.188;8.524;2022-08-21T12:39:19;99014.22;;;29.35;31.42
46007;BME280;31738;50.188;8.524;2022-08-21T12:41:55;99016.50;;;29.12;31.28
46007;BME280;31738;50.188;8.524;2022-08-21T12:47:04;99012.59;;;29.20;31.90
46007;BME280;31738;50.188;8.524;2022-08-21T12:49:51;98999.59;;;29.45;32.01
46007;BME280;31738;50.188;8.524;2022-08-21T12:52:27;99007.94;;;29.62;31.96
46007;BME280;31738;50.188;8.524;2022-08-21T12:54:54;99007.94;;;29.62;31.96
46007;BME280;31738;50.188;8.524;2022-08-21T12:57:25;99007.94;;;29.59;31.42
46007;BME280;31738;50.188;8.524;2022-08-21T13:00:00;98998.44;;;29.53;31.36
46007;BME280;31738;50.188;8.524;2022-08-21T13:02:35;98995.28;;;29.58;31.29
46007;BME280;31738;50.188;8.524;2022-08-21T13:05:05;98993.00;;;29.74;31.13
46007;BME280;31738;50.188;8.524;2022-08-21T13:07:33;98996.94;;;29.94;31.02
46007;BME280;31738;50.188;8.524;2022-08-21T13:10:06;98989.03;;;30.10;31.25
46007;BME280;31738;50.188;8.524;2022-08-21T13:12:41;98984.28;;;30.18;30.75
46007;BME280;31738;50.188;8.524;2022-08-21T13:15:07;98989.03;;;30.17;30.92
46007;BME280;31738;50.188;8.524;2022-08-21T13:17:41;98985.88;;;30.05;30.44
46007;BME280;31738;50.188;8.524;2022-08-21T13:22:44;98986.66;;;29.73;30.95
46007;BME280;31738;50.188;8.524;2022-08-21T13:25:14;98988.94;;;29.47;30.79
46007;BME280;31738;50.188;8.524;2022-08-21T13:27:41;98983.38;;;29.26;31.19
46007;BME280;31738;50.188;8.524;2022-08-21T13:30:20;98989.28;;;29.21;30.52
46007;BME280;31738;50.188;8.524;2022-08-21T13:32:49;98984.13;;;29.12;31.06
46007;BME280;31738;50.188;8.524;2022-08-21T13:35:27;98974.66;;;29.17;31.16
46007;BME280;31738;50.188;8.524;2022-08-21T13:37:54;98973.91;;;29.37;31.12
46007;BME280;31738;50.188;8.524;2022-08-21T13:40:27;98962.91;;;29.48;31.01
46007;BME280;31738;50.188;8.524;2022-08-21T13:42:53;98962.50;;;29.46;31.56
46007;BME280;31738;50.188;8.524;2022-08-21T13:45:26;98955.78;;;29.47;30.78
46007;BME280;31738;50.188;8.524;2022-08-21T13:47:52;98954.19;;;29.46;31.00
46007;BME280;31738;50.188;8.524;2022-08-21T13:50:21;98957.78;;;29.57;30.93
46007;BME280;31738;50.188;8.524;2022-08-21T13:52:58;98956.59;;;29.61;31.20
46007;BME280;31738;50.188;8.524;2022-08-21T13:55:25;98957.38;;;29.62;30.59
46007;BME280;31738;50.188;8.524;2022-08-21T13:58:00;98947.91;;;29.66;30.11
46007;BME280;31738;50.188;8.524;2022-08-21T14:00:28;98951.47;;;29.67;30.80
46007;BME280;31738;50.188;8.524;2022-08-21T14:03:02;98956.22;;;29.70;29.94
46007;BME280;31738;50.188;8.524;2022-08-21T14:05:31;98953.47;;;29.70;29.80
46007;BME280;31738;50.188;8.524;2022-08-21T14:08:04;98953.47;;;29.70;30.04
46007;BME280;31738;50.188;8.524;2022-08-21T14:10:31;98944.75;;;29.71;30.33